createdAt,value
2023-03-17T00:01:54.731Z,2.38
2023-03-17T00:04:56.587Z,2.47
2023-03-17T00:08:04.108Z,2.75
2023-03-17T00:11:06.333Z,2.45
2023-03-17T00:14:08.424Z,2.08
2023-03-17T00:17:14.023Z,2.17
2023-03-17T00:20:28.765Z,2.40
2023-03-17T00:23:30.532Z,2.42
2023-03-17T00:26:32.107Z,2.42
2023-03-17T00:29:33.621Z,2.17
2023-03-17T00:32:35.386Z,2.60
2023-03-17T00:35:38.325Z,1.88
2023-03-17T00:38:42.834Z,2.15
2023-03-17T00:41:44.582Z,2.22
2023-03-17T00:44:46.994Z,2.08
2023-03-17T00:47:50.173Z,1.75
2023-03-17T00:50:51.721Z,2.03
2023-03-17T00:53:53.393Z,1.95
2023-03-17T00:56:54.920Z,2.20
2023-03-17T00:59:56.857Z,2.10
2023-03-17T01:02:58.378Z,2.33
2023-03-17T01:06:04.527Z,2.03
2023-03-17T01:12:12.523Z,1.90
2023-03-17T01:15:14.891Z,2.20
2023-03-17T01:18:18.082Z,2.20
2023-03-17T01:21:20.467Z,1.92
2023-03-17T01:24:22.038Z,2.33
2023-03-17T01:27:24.412Z,1.73
2023-03-17T01:30:28.590Z,1.40
2023-03-17T01:33:30.744Z,1.63
2023-03-17T01:36:32.268Z,1.63
2023-03-17T01:39:34.348Z,2.10
2023-03-17T01:42:36.276Z,2.33
2023-03-17T01:46:15.227Z,1.90
2023-03-17T01:49:29.974Z,1.90
2023-03-17T01:52:34.429Z,1.98
2023-03-17T01:55:36.764Z,2.30
2023-03-17T01:58:39.570Z,1.75
2023-03-17T02:01:44.557Z,1.75
2023-03-17T02:04:46.116Z,2.20
2023-03-17T02:07:48.367Z,2.17
2023-03-17T02:10:50.614Z,2.20
2023-03-17T02:13:53.339Z,1.70
2023-03-17T02:16:56.273Z,2.15
2023-03-17T02:20:13.811Z,2.10
2023-03-17T02:23:19.026Z,2.53
2023-03-17T02:26:24.593Z,2.22
2023-03-17T02:29:26.114Z,1.95
2023-03-17T02:32:27.748Z,2.08
2023-03-17T02:35:31.505Z,2.40
2023-03-17T02:38:33.073Z,2.08
2023-03-17T02:41:36.334Z,2.17
2023-03-17T02:44:38.326Z,1.50
2023-03-17T02:47:40.075Z,1.80
2023-03-17T02:50:41.595Z,1.70
2023-03-17T02:53:43.218Z,1.70
2023-03-17T02:56:44.827Z,1.70
2023-03-17T02:59:46.502Z,1.80
2023-03-17T03:02:48.056Z,1.80
2023-03-17T03:05:49.613Z,1.80
2023-03-17T03:08:52.319Z,2.03
2023-03-17T03:11:53.889Z,1.45
2023-03-17T03:14:55.339Z,1.30
2023-03-17T03:17:56.766Z,1.33
2023-03-17T03:20:58.521Z,1.45
2023-03-17T03:24:00.027Z,1.73
2023-03-17T03:27:01.586Z,1.65
2023-03-17T03:30:04.197Z,2.10
2023-03-17T03:33:06.559Z,3.47
2023-03-17T03:36:08.817Z,2.17
2023-03-17T03:39:12.457Z,1.73
2023-03-17T03:42:16.415Z,2.10
2023-03-17T03:45:18.016Z,1.55
2023-03-17T03:48:19.532Z,2.08
2023-03-17T03:51:21.039Z,2.42
2023-03-17T03:54:22.560Z,2.17
2023-03-17T03:57:24.094Z,2.60
2023-03-17T04:00:26.097Z,1.90
2023-03-17T04:03:27.913Z,2.13
2023-03-17T04:06:29.420Z,2.45
2023-03-17T04:09:30.890Z,2.28
2023-03-17T04:12:32.380Z,2.58
2023-03-17T04:15:33.932Z,2.92
2023-03-17T04:18:35.724Z,2.25
2023-03-17T04:21:37.446Z,2.78
2023-03-17T04:24:39.384Z,2.38
2023-03-17T04:27:42.348Z,2.30
2023-03-17T04:30:43.800Z,3.03
2023-03-17T04:33:45.318Z,2.28
2023-03-17T04:36:47.872Z,2.95
2023-03-17T04:39:49.339Z,2.30
2023-03-17T04:42:51.088Z,2.15
2023-03-17T04:45:52.728Z,2.03
2023-03-17T04:48:54.294Z,2.00
2023-03-17T04:51:55.806Z,1.80
2023-03-17T04:54:57.594Z,2.10
2023-03-17T04:57:59.092Z,2.42
2023-03-17T05:01:02.460Z,2.05
2023-03-17T05:04:04.306Z,2.42
2023-03-17T05:07:05.905Z,2.03
2023-03-17T05:10:08.007Z,2.55
2023-03-17T05:13:09.480Z,2.40
2023-03-17T05:16:11.651Z,2.97
2023-03-17T05:19:13.168Z,2.08
2023-03-17T05:22:14.602Z,2.75
2023-03-17T05:25:16.907Z,2.22
2023-03-17T05:28:20.795Z,2.65
2023-03-17T05:31:22.813Z,2.78
2023-03-17T05:34:24.541Z,2.15
2023-03-17T05:37:26.074Z,1.85
2023-03-17T05:40:27.593Z,2.63
2023-03-17T05:43:29.192Z,1.58
2023-03-17T05:46:30.679Z,2.75
2023-03-17T05:49:32.258Z,1.67
2023-03-17T05:52:33.715Z,1.90
2023-03-17T05:55:35.305Z,2.17
2023-03-17T05:58:36.818Z,3.08
2023-03-17T06:01:38.277Z,3.15
2023-03-17T06:04:40.009Z,2.92
2023-03-17T06:07:52.310Z,2.80
2023-03-17T06:10:54.830Z,3.40
2023-03-17T06:13:56.427Z,3.53
2023-03-17T06:16:58.024Z,3.13
2023-03-17T06:19:59.480Z,3.00
2023-03-17T06:23:05.032Z,4.28
2023-03-17T06:26:07.256Z,4.60
2023-03-17T06:29:10.222Z,3.13
2023-03-17T06:32:20.277Z,4.32
2023-03-17T06:35:23.354Z,4.10
2023-03-17T06:38:25.437Z,4.53
2023-03-17T06:41:27.516Z,4.65
2023-03-17T06:44:29.267Z,3.63
2023-03-17T06:47:30.796Z,3.15
2023-03-17T06:50:32.486Z,3.80
2023-03-17T06:53:34.060Z,3.92
2023-03-17T06:56:35.943Z,4.20
2023-03-17T06:59:37.840Z,3.78
2023-03-17T07:02:39.457Z,4.15
2023-03-17T07:05:41.097Z,3.83
2023-03-17T07:08:42.649Z,4.97
2023-03-17T07:11:44.097Z,4.30
2023-03-17T07:14:46.160Z,4.35
2023-03-17T07:17:47.946Z,3.80
2023-03-17T07:20:49.380Z,3.80
2023-03-17T07:23:51.151Z,4.05
2023-03-17T07:26:52.874Z,4.03
2023-03-17T07:29:54.432Z,4.22
2023-03-17T07:32:57.522Z,4.60
2023-03-17T07:35:59.223Z,5.10
2023-03-17T07:39:05.837Z,6.45
2023-03-17T07:42:07.413Z,6.95
2023-03-17T07:45:09.996Z,5.60
2023-03-17T07:48:13.091Z,3.88
2023-03-17T07:51:17.011Z,2.88
2023-03-17T07:54:18.866Z,2.97
2023-03-17T07:57:20.833Z,2.15
2023-03-17T08:00:23.565Z,3.10
2023-03-17T08:03:25.303Z,3.58
2023-03-17T08:06:27.299Z,2.90
2023-03-17T08:09:28.800Z,3.22
2023-03-17T08:12:30.266Z,2.63
2023-03-17T08:15:31.866Z,3.10
2023-03-17T08:18:34.105Z,2.95
2023-03-17T08:21:36.036Z,2.50
2023-03-17T08:24:38.360Z,2.50
2023-03-17T08:27:39.886Z,2.28
2023-03-17T08:30:42.694Z,1.55
2023-03-17T08:33:48.116Z,1.67
2023-03-17T08:36:50.638Z,1.63
2023-03-17T08:39:52.393Z,1.63
2023-03-17T08:42:53.947Z,2.35
2023-03-17T08:46:24.294Z,2.30
2023-03-17T08:49:28.540Z,2.10
2023-03-17T08:52:30.683Z,2.60
2023-03-17T08:55:32.204Z,2.70
2023-03-17T08:58:35.694Z,3.10
2023-03-17T09:01:37.653Z,3.55
2023-03-17T09:04:40.242Z,3.80
2023-03-17T09:07:43.606Z,3.40
2023-03-17T09:10:47.344Z,2.85
2023-03-17T09:13:49.336Z,3.22
2023-03-17T09:16:50.910Z,2.78
2023-03-17T09:19:52.361Z,2.88
2023-03-17T09:22:54.324Z,2.65
2023-03-17T09:25:55.923Z,2.45
2023-03-17T09:28:57.830Z,3.17
2023-03-17T09:32:00.017Z,2.78
2023-03-17T09:35:01.915Z,2.58
2023-03-17T09:38:03.680Z,2.55
2023-03-17T09:41:46.646Z,2.67
2023-03-17T09:45:01.928Z,3.00
2023-03-17T09:48:12.026Z,3.00
2023-03-17T09:51:18.457Z,3.10
2023-03-17T09:54:31.335Z,3.85
2023-03-17T09:57:36.265Z,3.60
2023-03-17T10:00:37.871Z,3.70
2023-03-17T10:03:39.955Z,3.75
2023-03-17T10:06:46.798Z,4.20
2023-03-17T10:10:03.040Z,4.10
2023-03-17T10:13:16.646Z,3.80
2023-03-17T10:16:21.909Z,4.47
2023-03-17T10:19:30.485Z,3.80
2023-03-17T10:22:43.290Z,4.40
2023-03-17T10:25:44.970Z,3.70
2023-03-17T10:28:46.730Z,3.72
2023-03-17T10:31:49.522Z,3.10
2023-03-17T10:34:51.047Z,2.30
2023-03-17T10:38:04.422Z,4.18
2023-03-17T10:41:16.667Z,5.45
2023-03-17T10:44:26.566Z,4.90
2023-03-17T10:47:46.809Z,5.78
2023-03-17T10:50:49.544Z,5.22
2023-03-17T10:53:52.912Z,5.57
2023-03-17T10:57:08.101Z,6.30
2023-03-17T11:00:20.838Z,5.05
2023-03-17T11:03:35.347Z,5.38
2023-03-17T11:06:44.136Z,5.05
2023-03-17T11:09:56.830Z,4.60
2023-03-17T11:13:02.107Z,5.07
2023-03-17T11:16:23.371Z,5.45
2023-03-17T11:19:53.965Z,5.28
2023-03-17T11:23:04.803Z,5.03
2023-03-17T11:26:14.727Z,3.95
2023-03-17T11:29:35.756Z,5.15
2023-03-17T11:32:59.025Z,4.28
2023-03-17T11:36:29.603Z,4.47
2023-03-17T11:40:19.037Z,4.20
2023-03-17T11:43:34.910Z,4.32
2023-03-17T11:46:46.597Z,4.35
2023-03-17T11:50:02.040Z,4.10
2023-03-17T11:53:32.039Z,4.63
2023-03-17T11:56:41.935Z,4.07
2023-03-17T12:00:02.048Z,3.50
2023-03-17T12:03:23.199Z,3.78
2023-03-17T12:06:30.463Z,4.30
2023-03-17T12:09:46.223Z,3.55
2023-03-17T12:12:56.545Z,3.40
2023-03-17T12:16:08.722Z,3.85
2023-03-17T12:19:16.525Z,3.50
2023-03-17T12:22:30.554Z,3.30
2023-03-17T12:25:40.469Z,3.30
2023-03-17T12:29:06.782Z,3.08
2023-03-17T12:32:18.294Z,2.92
2023-03-17T12:35:33.202Z,3.47
2023-03-17T12:38:41.022Z,2.92
2023-03-17T12:42:01.661Z,2.55
2023-03-17T12:45:22.362Z,2.83
2023-03-17T12:48:42.637Z,2.90
2023-03-17T12:52:06.716Z,3.28
2023-03-17T12:55:17.754Z,3.20
2023-03-17T12:58:44.076Z,3.80
2023-03-17T13:01:55.544Z,3.28
2023-03-17T13:05:02.637Z,3.50
2023-03-17T13:08:08.352Z,3.15
2023-03-17T13:11:27.253Z,3.65
2023-03-17T13:14:42.497Z,3.60
2023-03-17T13:17:44.041Z,3.15
2023-03-17T13:20:51.976Z,3.85
2023-03-17T13:23:58.131Z,3.05
2023-03-17T13:27:01.968Z,3.20
2023-03-17T13:30:26.939Z,3.40
2023-03-17T13:33:32.570Z,3.40
2023-03-17T13:36:54.613Z,3.85
2023-03-17T13:40:19.098Z,3.60
2023-03-17T13:43:45.362Z,3.85
2023-03-17T13:46:48.246Z,3.95
2023-03-17T13:49:52.840Z,3.50
2023-03-17T13:53:08.578Z,3.80
2023-03-17T13:56:21.600Z,3.63
2023-03-17T13:59:32.878Z,3.40
2023-03-17T14:02:39.053Z,3.88
2023-03-17T14:05:42.184Z,3.75
2023-03-17T14:09:16.460Z,3.50
2023-03-17T14:12:24.704Z,3.47
2023-03-17T14:15:50.551Z,3.30
2023-03-17T14:18:58.988Z,3.47
2023-03-17T14:22:19.576Z,3.17
2023-03-17T14:25:28.550Z,4.78
2023-03-17T14:28:32.905Z,4.22
2023-03-17T14:31:34.656Z,3.60
2023-03-17T14:34:43.315Z,3.42
2023-03-17T14:37:45.461Z,3.22
2023-03-17T14:40:47.799Z,3.47
2023-03-17T14:43:52.179Z,3.13
2023-03-17T14:47:05.654Z,3.10
2023-03-17T14:50:22.052Z,2.80
2023-03-17T14:53:24.233Z,2.88
2023-03-17T14:56:50.642Z,2.50
2023-03-17T15:00:22.840Z,2.85
2023-03-17T15:03:27.928Z,2.80
2023-03-17T15:06:30.631Z,3.00
2023-03-17T15:09:36.778Z,3.25
2023-03-17T15:12:38.851Z,3.22
2023-03-17T15:15:41.607Z,3.25
2023-03-17T15:18:43.916Z,3.60
2023-03-17T15:21:45.592Z,3.83
2023-03-17T15:25:02.264Z,3.38
2023-03-17T15:28:14.815Z,3.83
2023-03-17T15:31:16.492Z,3.97
2023-03-17T15:34:18.014Z,3.20
2023-03-17T15:37:26.588Z,3.72
2023-03-17T15:40:28.105Z,3.03
2023-03-17T15:43:29.602Z,3.03
2023-03-17T15:46:32.192Z,3.00
2023-03-17T15:49:35.018Z,3.10
2023-03-17T15:52:36.533Z,2.92
2023-03-17T15:55:37.988Z,3.70
2023-03-17T15:58:39.480Z,3.00
2023-03-17T16:01:41.131Z,3.08
2023-03-17T16:04:42.670Z,2.47
2023-03-17T16:07:44.932Z,3.08
2023-03-17T16:10:46.968Z,2.88
2023-03-17T16:13:48.454Z,2.95
2023-03-17T16:16:50.053Z,2.38
2023-03-17T16:19:52.598Z,2.80
2023-03-17T16:23:00.853Z,3.03
2023-03-17T16:26:14.415Z,3.00
2023-03-17T16:29:22.149Z,3.20
2023-03-17T16:32:23.751Z,3.00
2023-03-17T16:35:25.749Z,3.38
2023-03-17T16:38:29.982Z,3.58
2023-03-17T16:41:34.764Z,3.25
2023-03-17T16:44:36.350Z,3.08
2023-03-17T16:47:37.840Z,3.30
2023-03-17T16:50:39.526Z,2.72
2023-03-17T16:53:41.092Z,3.58
2023-03-17T16:56:42.791Z,2.67
2023-03-17T16:59:44.332Z,6.10
2023-03-17T17:02:48.521Z,7.68
2023-03-17T17:05:51.370Z,6.75
2023-03-17T17:08:53.077Z,3.75
2023-03-17T17:11:54.547Z,3.35
2023-03-17T17:14:56.024Z,4.93
2023-03-17T17:18:01.072Z,3.67
2023-03-17T17:21:03.769Z,3.70
2023-03-17T17:24:05.518Z,4.68
2023-03-17T17:27:07.238Z,4.47
2023-03-17T17:30:11.587Z,5.65
2023-03-17T17:33:13.304Z,5.25
2023-03-17T17:36:16.607Z,5.10
2023-03-17T17:39:18.225Z,6.90
2023-03-17T17:42:20.564Z,5.65
2023-03-17T17:45:22.174Z,5.90
2023-03-17T17:48:26.525Z,5.97
2023-03-17T17:51:28.760Z,5.90
2023-03-17T17:54:30.323Z,5.15
2023-03-17T17:57:31.784Z,5.15
2023-03-17T18:00:33.547Z,5.00
2023-03-17T18:03:35.242Z,5.00
2023-03-17T18:06:36.834Z,7.88
2023-03-17T18:09:38.353Z,9.57
2023-03-17T18:12:39.859Z,5.80
2023-03-17T18:15:41.611Z,5.97
2023-03-17T18:18:45.553Z,5.80
2023-03-17T18:21:47.568Z,5.90
2023-03-17T18:24:49.890Z,5.32
2023-03-17T18:27:51.403Z,5.05
2023-03-17T18:30:54.102Z,4.85
2023-03-17T18:33:59.717Z,4.90
2023-03-17T18:37:02.052Z,4.93
2023-03-17T18:40:14.216Z,5.13
2023-03-17T18:43:18.992Z,4.93
2023-03-17T18:46:20.569Z,5.20
2023-03-17T18:49:25.147Z,4.95
2023-03-17T18:52:34.952Z,5.10
2023-03-17T18:55:36.789Z,5.03
2023-03-17T18:58:38.357Z,5.78
2023-03-17T19:01:43.072Z,5.45
2023-03-17T19:04:47.063Z,5.07
2023-03-17T19:07:48.621Z,5.00
2023-03-17T19:10:50.319Z,5.70
2023-03-17T19:13:52.467Z,4.47
2023-03-17T19:16:54.008Z,4.60
2023-03-17T19:19:55.832Z,4.57
2023-03-17T19:22:59.678Z,4.60
2023-03-17T19:26:02.007Z,4.30
2023-03-17T19:29:03.519Z,4.88
2023-03-17T19:32:06.419Z,3.97
2023-03-17T19:35:08.402Z,4.82
2023-03-17T19:38:11.448Z,4.55
2023-03-17T19:41:13.637Z,4.53
2023-03-17T19:44:15.193Z,4.55
2023-03-17T19:47:16.922Z,4.50
2023-03-17T19:50:18.823Z,5.72
2023-03-17T19:53:20.667Z,5.10
2023-03-17T19:56:23.036Z,4.72
2023-03-17T19:59:24.684Z,3.85
2023-03-17T20:02:26.226Z,3.90
2023-03-17T20:05:27.655Z,4.20
2023-03-17T20:08:29.170Z,3.40
2023-03-17T20:11:33.813Z,3.92
2023-03-17T20:14:35.896Z,3.97
2023-03-17T20:17:37.447Z,3.38
2023-03-17T20:20:39.214Z,3.80
2023-03-17T20:23:40.882Z,3.35
2023-03-17T20:26:45.537Z,3.67
2023-03-17T20:29:48.507Z,3.88
2023-03-17T20:32:51.092Z,3.97
2023-03-17T20:35:52.848Z,3.67
2023-03-17T20:38:54.624Z,3.58
2023-03-17T20:41:56.350Z,3.95
2023-03-17T20:44:58.012Z,3.45
2023-03-17T20:48:00.813Z,3.30
2023-03-17T20:51:06.306Z,3.45
2023-03-17T20:54:08.680Z,3.50
2023-03-17T20:57:14.049Z,3.42
2023-03-17T21:00:18.673Z,4.10
2023-03-17T21:03:20.813Z,3.75
2023-03-17T21:06:25.892Z,3.40
2023-03-17T21:09:28.307Z,2.65
2023-03-17T21:12:30.178Z,2.58
2023-03-17T21:15:31.766Z,2.05
2023-03-17T21:18:33.333Z,2.15
2023-03-17T21:21:34.809Z,2.17
2023-03-17T21:24:38.279Z,1.67
2023-03-17T21:27:40.847Z,1.88
2023-03-17T21:30:49.065Z,2.28
2023-03-17T21:33:50.823Z,2.70
2023-03-17T21:36:53.291Z,2.10
2023-03-17T21:39:55.028Z,2.53
2023-03-17T21:42:57.236Z,2.65
2023-03-17T21:45:58.756Z,2.70
2023-03-17T21:49:00.565Z,2.35
2023-03-17T21:52:02.274Z,2.35
2023-03-17T21:55:05.842Z,2.42
2023-03-17T21:58:08.158Z,2.38
2023-03-17T22:01:10.067Z,2.13
2023-03-17T22:04:12.631Z,2.50
2023-03-17T22:07:14.563Z,2.08
2023-03-17T22:10:16.583Z,1.73
2023-03-17T22:13:18.160Z,1.90
2023-03-17T22:16:19.784Z,2.13
2023-03-17T22:19:21.544Z,2.63
2023-03-17T22:22:23.956Z,1.85
2023-03-17T22:25:25.416Z,2.50
2023-03-17T22:28:26.955Z,2.47
2023-03-17T22:31:30.797Z,2.08
2023-03-17T22:34:32.515Z,2.55
2023-03-17T22:37:33.987Z,2.65
2023-03-17T22:40:35.964Z,2.20
2023-03-17T22:43:38.155Z,2.25
2023-03-17T22:46:43.331Z,2.50
2023-03-17T22:49:44.920Z,2.80
2023-03-17T22:52:46.953Z,2.85
2023-03-17T22:55:48.474Z,2.50
2023-03-17T22:58:50.639Z,2.20
2023-03-17T23:01:52.392Z,2.80
2023-03-17T23:04:54.168Z,2.47
2023-03-17T23:07:55.792Z,2.30
2023-03-17T23:10:59.459Z,2.67
2023-03-17T23:14:00.974Z,2.95
2023-03-17T23:17:03.163Z,2.70
2023-03-17T23:20:05.563Z,2.58
2023-03-17T23:23:08.349Z,2.38
2023-03-17T23:26:10.736Z,2.58
2023-03-17T23:29:12.579Z,2.95
2023-03-17T23:32:14.354Z,2.72
2023-03-17T23:35:17.414Z,2.50
2023-03-17T23:38:21.419Z,2.20
2023-03-17T23:41:22.994Z,2.65
2023-03-17T23:44:24.586Z,2.65
2023-03-17T23:47:27.072Z,2.55
2023-03-17T23:50:28.694Z,2.85
2023-03-17T23:53:30.271Z,2.88
2023-03-17T23:56:32.407Z,3.38
2023-03-17T23:59:34.767Z,2.25
